Time;durP1;ratioP1;P1;durP2;ratioP2;P2;SDS_P1;SDS_P2;PMS_P1;PMS_P2;Temp;Humidity;BMP_temperature;BMP_pressure;BME280_temperature;BME280_humidity;BME280_pressure;Samples;Min_cycle;Max_cycle;Signal;HPM_P1;HPM_P2
2022/01/15 00:02:19;;;;;;;17.10;8.57;;;;;;;7.34;55.27;102900.56;5095465;28;20052;-77
2022/01/15 00:04:46;;;;;;;21.60;9.10;;;;;;;7.34;55.24;102911.38;5088864;28;20433;-77
2022/01/15 00:07:12;;;;;;;19.95;8.25;;;;;;;7.34;55.18;102919.47;5069908;28;20052;-76
2022/01/15 00:09:41;;;;;;;17.98;8.85;;;;;;;7.34;55.14;102913.19;5085349;28;20131;-76
2022/01/15 00:12:08;;;;;;;20.77;8.55;;;;;;;7.32;55.18;102907.84;5087224;28;20106;-77
2022/01/15 00:14:39;;;;;;;17.10;7.88;;;;;;;7.32;55.05;102909.66;5086413;28;20058;-77
2022/01/15 00:17:14;;;;;;;17.67;7.53;;;;;;;7.32;55.19;102910.53;5085353;28;20055;-77
2022/01/15 00:19:41;;;;;;;16.52;7.70;;;;;;;7.30;55.29;102908.78;5088704;28;20056;-77
2022/01/15 00:22:08;;;;;;;15.00;7.28;;;;;;;7.29;55.33;102907.88;5092128;28;20490;-76
2022/01/15 00:24:36;;;;;;;13.65;6.72;;;;;;;7.28;55.12;102902.50;5091077;28;20087;-76
2022/01/15 00:27:04;;;;;;;13.77;6.63;;;;;;;7.26;55.21;102911.53;5058618;28;20075;-76
2022/01/15 00:29:32;;;;;;;15.63;6.63;;;;;;;7.26;55.04;102914.22;5091594;28;20044;-75
2022/01/15 00:31:59;;;;;;;14.18;6.88;;;;;;;7.25;55.06;102907.03;5088853;28;20311;-76
2022/01/15 00:34:27;;;;;;;14.25;6.97;;;;;;;7.25;54.86;102909.75;5085130;28;20051;-77
2022/01/15 00:36:54;;;;;;;14.13;6.45;;;;;;;7.23;54.81;102910.72;5091963;28;20095;-76
2022/01/15 00:39:21;;;;;;;13.57;6.72;;;;;;;7.22;55.16;102903.53;5084744;28;20105;-76
2022/01/15 00:41:48;;;;;;;14.18;6.63;;;;;;;7.21;55.42;102905.34;5092144;28;20070;-76
2022/01/15 00:44:15;;;;;;;12.52;5.50;;;;;;;7.20;55.40;102900.84;5072669;28;20063;-77
2022/01/15 00:46:42;;;;;;;12.95;5.95;;;;;;;7.22;55.39;102906.22;5086723;28;20472;-77
2022/01/15 00:49:09;;;;;;;14.23;6.65;;;;;;;7.21;55.21;102902.63;5074067;28;20480;-77
2022/01/15 00:51:37;;;;;;;15.20;7.05;;;;;;;7.22;55.36;102892.72;5073053;28;20457;-76
2022/01/15 00:54:03;;;;;;;12.95;6.72;;;;;;;7.20;54.98;102895.44;5093408;28;20079;-77
2022/01/15 00:56:30;;;;;;;12.38;5.93;;;;;;;7.20;55.15;102886.47;5087150;28;20087;-76
2022/01/15 00:58:56;;;;;;;13.73;5.97;;;;;;;7.20;55.18;102884.66;5084877;28;20052;-76
2022/01/15 01:01:23;;;;;;;11.13;5.38;;;;;;;7.20;55.58;102873.84;5081976;28;20076;-77
2022/01/15 01:03:50;;;;;;;14.02;6.10;;;;;;;7.21;55.48;102875.63;5089979;28;20044;-76
2022/01/15 01:06:17;;;;;;;11.45;5.57;;;;;;;7.22;55.48;102879.22;5089482;28;20541;-76
2022/01/15 01:08:44;;;;;;;11.82;6.57;;;;;;;7.23;55.13;102867.50;5073293;28;20102;-76
2022/01/15 01:11:17;;;;;;;12.25;5.93;;;;;;;7.22;54.98;102853.09;5090291;28;20131;-76
2022/01/15 01:24:14;;;;;;;14.48;6.50;;;;;;;7.17;55.06;102851.38;5090025;28;20075;-76
2022/01/15 01:29:22;;;;;;;12.60;5.82;;;;;;;7.18;55.21;102845.06;5084371;28;20040;-76
2022/01/15 01:32:08;;;;;;;12.77;5.88;;;;;;;7.19;55.58;102849.56;5087123;28;20127;-76
2022/01/15 01:34:38;;;;;;;12.57;5.70;;;;;;;7.18;55.15;102840.56;5068888;28;20482;-76
2022/01/15 01:37:14;;;;;;;12.02;5.18;;;;;;;7.19;55.15;102844.16;5085617;28;20135;-76
2022/01/15 01:45:11;;;;;;;10.93;5.10;;;;;;;7.24;55.74;102829.66;5083245;28;20135;-75
2022/01/15 01:47:40;;;;;;;10.43;4.90;;;;;;;7.23;55.61;102822.47;5081854;28;20417;-77
2022/01/15 01:50:09;;;;;;;11.75;5.50;;;;;;;7.26;55.25;102827.78;5071671;28;20076;-75
2022/01/15 01:52:36;;;;;;;12.65;5.85;;;;;;;7.26;55.32;102819.66;5091104;28;20455;-75
2022/01/15 01:55:04;;;;;;;11.93;5.45;;;;;;;7.30;55.04;102830.44;5087776;28;20311;-75
2022/01/15 01:57:31;;;;;;;11.18;5.03;;;;;;;7.31;55.17;102829.50;5072039;28;20127;-74
2022/01/15 01:59:58;;;;;;;10.88;5.22;;;;;;;7.31;55.44;102826.81;5069624;28;20044;-75
2022/01/15 02:02:25;;;;;;;9.73;4.55;;;;;;;7.33;55.44;102824.97;5098498;28;20132;-75
2022/01/15 02:04:56;;;;;;;12.93;5.65;;;;;;;7.34;55.26;102821.31;5093587;28;20131;-75
2022/01/15 02:07:27;;;;;;;11.95;5.50;;;;;;;7.35;55.08;102823.09;5087456;28;20067;-75
2022/01/15 02:09:54;;;;;;;9.07;4.88;;;;;;;7.33;55.17;102823.13;5089656;28;20113;-75
2022/01/15 02:12:21;;;;;;;11.20;5.68;;;;;;;7.32;55.22;102813.25;5090449;28;20135;-75
2022/01/15 02:14:48;;;;;;;10.73;5.70;;;;;;;7.33;54.99;102814.16;5095755;28;20131;-75
2022/01/15 02:17:18;;;;;;;10.20;5.18;;;;;;;7.32;54.98;102813.25;5083545;28;20056;-75
2022/01/15 02:20:08;;;;;;;11.77;5.60;;;;;;;7.31;54.88;102811.47;5089650;28;20611;-75
2022/01/15 02:25:17;;;;;;;11.48;5.35;;;;;;;7.27;54.85;102812.47;5088828;28;20106;-76
2022/01/15 02:27:44;;;;;;;11.55;6.03;;;;;;;7.26;54.83;102813.38;5071413;28;20047;-76
2022/01/15 02:30:11;;;;;;;10.18;5.05;;;;;;;7.26;54.82;102806.16;5088468;28;20059;-75
2022/01/15 02:32:38;;;;;;;9.93;5.07;;;;;;;7.25;54.88;102806.19;5090057;28;20471;-75
2022/01/15 02:35:05;;;;;;;9.88;5.20;;;;;;;7.23;55.11;102814.34;5074463;28;20123;-75
2022/01/15 02:37:32;;;;;;;11.13;5.55;;;;;;;7.23;54.98;102806.25;5079530;28;20056;-75
2022/01/15 02:39:59;;;;;;;12.57;6.07;;;;;;;7.23;54.92;102798.16;5070749;28;20068;-76
2022/01/15 02:42:29;;;;;;;12.90;6.03;;;;;;;7.23;54.71;102795.44;5075929;28;20080;-76
2022/01/15 02:45:00;;;;;;;11.38;6.30;;;;;;;7.21;54.59;102794.59;5065467;28;20131;-76
2022/01/15 02:50:11;;;;;;;10.82;4.97;;;;;;;7.13;54.76;102787.56;5089155;28;20075;-75
2022/01/15 02:52:38;;;;;;;9.60;4.90;;;;;;;7.13;54.98;102795.66;5090087;28;20136;-75
2022/01/15 02:55:05;;;;;;;10.48;4.53;;;;;;;7.12;54.88;102792.06;5086384;28;20131;-74
2022/01/15 02:57:32;;;;;;;10.00;4.70;;;;;;;7.11;55.09;102792.09;5082043;28;20167;-75
2022/01/15 02:59:59;;;;;;;8.98;5.05;;;;;;;7.11;54.92;102784.00;5082080;28;20415;-75
2022/01/15 03:02:31;;;;;;;11.23;5.53;;;;;;;7.11;55.02;102784.00;5076491;28;20051;-75
2022/01/15 03:04:58;;;;;;;10.53;5.23;;;;;;;7.10;54.98;102779.50;5086236;28;20525;-75
2022/01/15 03:07:25;;;;;;;11.35;5.10;;;;;;;7.10;54.77;102779.50;5081159;28;20091;-75
2022/01/15 03:09:51;;;;;;;10.05;5.45;;;;;;;7.09;54.60;102775.03;5065049;28;20087;-75
2022/01/15 03:12:19;;;;;;;10.98;5.18;;;;;;;7.09;54.84;102770.53;5082733;28;20544;-75
2022/01/15 03:14:47;;;;;;;9.88;5.07;;;;;;;7.07;54.79;102763.41;5086180;28;20146;-75
2022/01/15 03:17:14;;;;;;;10.63;5.20;;;;;;;7.07;54.81;102774.19;5087297;28;20075;-75
2022/01/15 03:19:42;;;;;;;10.52;4.95;;;;;;;7.06;54.74;102764.31;5070638;28;20059;-75
2022/01/15 03:22:08;;;;;;;8.73;4.68;;;;;;;7.05;54.91;102758.03;5089356;28;20134;-76
2022/01/15 03:24:35;;;;;;;8.52;5.10;;;;;;;7.04;54.89;102753.53;5087803;28;20127;-75
2022/01/15 03:27:02;;;;;;;9.90;5.50;;;;;;;7.04;54.75;102758.94;5084048;28;20139;-75
2022/01/15 03:29:29;;;;;;;10.45;5.60;;;;;;;7.03;54.76;102743.66;5066304;28;20053;-75
2022/01/15 03:31:55;;;;;;;11.35;5.03;;;;;;;7.04;54.87;102748.13;5082942;28;20165;-75
2022/01/15 03:34:22;;;;;;;9.80;4.90;;;;;;;7.04;54.97;102739.16;5085979;28;20048;-75
2022/01/15 03:36:49;;;;;;;7.35;4.45;;;;;;;7.04;54.97;102741.84;5086347;28;20091;-75
2022/01/15 03:39:15;;;;;;;10.05;5.15;;;;;;;7.03;54.58;102751.75;5088110;28;20135;-75
2022/01/15 03:41:42;;;;;;;9.23;4.75;;;;;;;7.03;54.82;102745.47;5086862;28;20443;-75
2022/01/15 03:44:08;;;;;;;9.07;4.57;;;;;;;7.03;54.88;102745.47;5086299;28;20087;-75
2022/01/15 03:46:35;;;;;;;9.27;4.95;;;;;;;7.05;54.59;102740.94;5080524;28;20537;-75
2022/01/15 03:49:01;;;;;;;8.90;4.97;;;;;;;7.04;54.73;102744.56;5069518;28;20139;-76
2022/01/15 03:51:28;;;;;;;8.55;4.40;;;;;;;7.04;54.61;102733.75;5088886;28;20475;-75
2022/01/15 03:53:55;;;;;;;9.48;4.70;;;;;;;7.03;54.51;102724.75;5081709;28;20467;-75
2022/01/15 03:56:21;;;;;;;8.63;4.57;;;;;;;7.03;54.58;102721.16;5091248;28;20122;-75
2022/01/15 03:58:48;;;;;;;9.98;4.60;;;;;;;7.02;54.32;102711.28;5081778;28;20044;-75
2022/01/15 04:01:14;;;;;;;9.98;4.70;;;;;;;7.02;54.67;102716.69;5095925;28;20050;-76
2022/01/15 04:03:41;;;;;;;8.38;4.55;;;;;;;7.01;54.58;102712.19;5075263;28;20056;-75
2022/01/15 04:06:07;;;;;;;8.30;4.60;;;;;;;6.99;54.51;102704.16;5090958;28;20089;-75
2022/01/15 04:08:34;;;;;;;8.65;4.35;;;;;;;6.97;54.65;102697.91;5091898;28;20109;-75
2022/01/15 04:11:01;;;;;;;12.98;5.43;;;;;;;6.98;54.75;102687.97;5091404;28;20187;-75
2022/01/15 04:13:27;;;;;;;9.50;4.97;;;;;;;6.97;54.52;102688.91;5075089;28;20052;-75
2022/01/15 04:15:54;;;;;;;9.15;4.50;;;;;;;6.97;54.65;102688.91;5077893;28;20491;-75
2022/01/15 04:18:22;;;;;;;9.88;5.43;;;;;;;6.97;54.72;102681.69;5083230;28;20044;-75
2022/01/15 04:20:51;;;;;;;7.70;4.05;;;;;;;6.97;54.63;102686.22;5074121;28;20143;-75
2022/01/15 04:23:17;;;;;;;8.38;4.75;;;;;;;6.96;54.58;102688.00;5092597;28;20103;-75
2022/01/15 04:25:44;;;;;;;9.00;4.88;;;;;;;6.96;54.47;102688.00;5090726;28;20056;-75
2022/01/15 04:28:12;;;;;;;8.90;4.43;;;;;;;6.95;54.30;102685.34;5074157;28;20135;-75
2022/01/15 04:30:41;;;;;;;11.00;5.30;;;;;;;6.94;54.58;102675.47;5088939;28;20283;-75
2022/01/15 04:33:08;;;;;;;9.52;5.03;;;;;;;6.93;54.49;102676.38;5074243;28;20127;-75
2022/01/15 04:35:34;;;;;;;9.10;5.13;;;;;;;6.91;54.72;102679.16;5090973;28;20126;-75
2022/01/15 04:38:06;;;;;;;10.10;5.32;;;;;;;6.90;54.47;102671.97;5074350;28;20119;-75
2022/01/15 04:40:32;;;;;;;10.35;5.20;;;;;;;6.87;54.54;102670.22;5091563;28;20062;-75
2022/01/15 04:42:59;;;;;;;10.63;6.13;;;;;;;6.87;54.51;102672.91;5089053;28;20048;-75
2022/01/15 04:45:26;;;;;;;10.73;5.38;;;;;;;6.86;54.50;102664.84;5081143;28;20142;-75
2022/01/15 04:47:52;;;;;;;11.05;5.50;;;;;;;6.86;54.50;102667.53;5091012;28;20131;-75
2022/01/15 04:50:20;;;;;;;12.27;5.45;;;;;;;6.87;54.56;102666.63;5080384;28;20451;-75
2022/01/15 04:52:47;;;;;;;11.00;6.28;;;;;;;6.86;54.43;102672.94;5073203;28;20066;-75
2022/01/15 04:55:14;;;;;;;13.20;6.10;;;;;;;6.86;54.52;102675.63;5090748;28;20048;-76
2022/01/15 04:57:41;;;;;;;11.07;6.10;;;;;;;6.83;54.30;102671.22;5072965;28;20149;-75
2022/01/15 05:00:12;;;;;;;12.20;5.82;;;;;;;6.84;54.58;102663.97;5090980;28;20135;-75
2022/01/15 05:02:38;;;;;;;10.13;5.25;;;;;;;6.79;54.30;102656.00;5080865;28;20122;-75
2022/01/15 05:05:06;;;;;;;10.60;5.22;;;;;;;6.79;54.35;102669.50;5070577;28;20130;-76
2022/01/15 05:07:32;;;;;;;11.52;6.13;;;;;;;6.79;54.63;102663.19;5085547;28;20135;-75
2022/01/15 05:09:59;;;;;;;11.07;5.53;;;;;;;6.78;54.68;102667.72;5081164;28;20135;-75
2022/01/15 05:12:32;;;;;;;12.07;6.15;;;;;;;6.79;54.51;102663.19;5073535;28;20126;-75
2022/01/15 05:14:59;;;;;;;9.10;4.55;;;;;;;6.74;54.62;102659.72;5071866;28;20130;-75
2022/01/15 05:17:26;;;;;;;12.25;5.70;;;;;;;6.76;54.55;102661.44;5072697;28;20044;-75
2022/01/15 05:19:52;;;;;;;12.18;6.25;;;;;;;6.77;54.45;102667.75;5089952;28;20139;-75
2022/01/15 05:22:19;;;;;;;13.35;6.78;;;;;;;6.74;54.53;102673.22;5073704;28;20466;-75
2022/01/15 05:24:45;;;;;;;12.88;6.82;;;;;;;6.74;54.45;102667.81;5070733;28;20131;-75
2022/01/15 05:27:12;;;;;;;13.13;6.60;;;;;;;6.72;54.80;102666.97;5088874;28;20044;-75
2022/01/15 05:29:38;;;;;;;13.43;6.75;;;;;;;6.72;54.71;102664.25;5089795;28;20131;-75
2022/01/15 05:32:05;;;;;;;12.35;6.30;;;;;;;6.72;54.73;102662.47;5078586;28;20132;-75
2022/01/15 05:34:37;;;;;;;13.13;6.05;;;;;;;6.68;54.41;102658.03;5069523;28;20087;-75
2022/01/15 05:37:04;;;;;;;10.30;5.40;;;;;;;6.68;54.69;102660.72;5069241;28;20441;-75
2022/01/15 05:39:31;;;;;;;12.23;5.95;;;;;;;6.68;54.51;102659.84;5078624;28;20695;-75
2022/01/15 05:41:58;;;;;;;12.15;5.75;;;;;;;6.67;54.46;102658.09;5083429;28;20135;-75
2022/01/15 05:44:24;;;;;;;13.25;6.15;;;;;;;6.67;54.74;102666.19;5087711;28;20082;-75
2022/01/15 05:46:51;;;;;;;12.05;5.68;;;;;;;6.66;54.67;102659.91;5089805;28;20154;-75
2022/01/15 05:49:17;;;;;;;10.25;6.10;;;;;;;6.66;54.83;102659.91;5084470;28;20146;-75
2022/01/15 05:51:44;;;;;;;12.30;5.63;;;;;;;6.66;54.40;102653.63;5098745;28;20514;-75
2022/01/15 05:54:11;;;;;;;12.90;6.78;;;;;;;6.68;54.66;102657.13;5089634;28;20545;-76
2022/01/15 05:56:39;;;;;;;13.52;6.75;;;;;;;6.67;54.67;102661.66;5070680;28;20448;-75
2022/01/15 05:59:06;;;;;;;14.98;7.20;;;;;;;6.65;54.57;102651.84;5071835;28;20051;-75
2022/01/15 06:01:35;;;;;;;11.85;6.25;;;;;;;6.63;54.62;102651.84;5090853;28;20522;-75
2022/01/15 06:04:02;;;;;;;13.00;6.60;;;;;;;6.63;54.68;102649.16;5092566;28;20048;-75
2022/01/15 06:06:28;;;;;;;13.82;6.78;;;;;;;6.62;54.48;102647.38;5089501;28;20068;-75
2022/01/15 06:08:55;;;;;;;13.50;6.47;;;;;;;6.62;54.65;102651.88;5070288;28;20073;-75
2022/01/15 06:11:23;;;;;;;12.82;6.22;;;;;;;6.60;54.40;102643.81;5085833;28;20050;-75
2022/01/15 06:13:50;;;;;;;12.85;6.15;;;;;;;6.58;54.61;102640.28;5087499;28;20142;-75
2022/01/15 06:16:17;;;;;;;11.90;6.20;;;;;;;6.59;54.59;102643.88;5058950;28;20381;-75
2022/01/15 06:18:43;;;;;;;14.63;6.55;;;;;;;6.57;54.73;102643.91;5086576;28;20052;-75
2022/01/15 06:21:10;;;;;;;13.95;6.65;;;;;;;6.58;54.74;102642.09;5089286;28;20087;-75
2022/01/15 06:23:36;;;;;;;13.85;6.57;;;;;;;6.57;54.63;102643.91;5090343;28;20450;-75
2022/01/15 06:26:03;;;;;;;12.80;6.70;;;;;;;6.56;54.61;102641.22;5057956;28;20065;-75
2022/01/15 06:28:30;;;;;;;13.88;6.45;;;;;;;6.56;54.55;102635.84;5089753;28;20130;-75
2022/01/15 06:30:57;;;;;;;13.32;7.03;;;;;;;6.53;54.33;102631.38;5089290;28;20116;-75
2022/01/15 06:33:28;;;;;;;11.32;5.60;;;;;;;6.52;54.62;102642.22;5072119;28;20068;-75
2022/01/15 06:35:55;;;;;;;11.88;6.30;;;;;;;6.51;54.74;102646.72;5069903;28;20082;-75
2022/01/15 06:38:21;;;;;;;13.32;6.57;;;;;;;6.52;54.82;102640.41;5084397;28;20123;-75
2022/01/15 06:40:48;;;;;;;10.98;5.93;;;;;;;6.52;54.62;102634.13;5076277;28;20079;-75
2022/01/15 06:43:14;;;;;;;11.90;6.15;;;;;;;6.51;54.67;102633.22;5090189;28;20470;-75
2022/01/15 06:45:41;;;;;;;12.63;6.22;;;;;;;6.52;54.76;102631.41;5068172;28;20467;-75
2022/01/15 06:48:08;;;;;;;12.23;6.10;;;;;;;6.51;54.82;102637.75;5068114;28;20070;-75
2022/01/15 06:50:37;;;;;;;11.45;5.93;;;;;;;6.51;54.85;102633.22;5081118;28;20147;-75
2022/01/15 06:53:04;;;;;;;10.88;6.25;;;;;;;6.52;54.85;102624.22;5089816;28;20070;-75
2022/01/15 06:55:31;;;;;;;12.80;6.18;;;;;;;6.53;54.73;102619.69;5073402;28;20078;-75
2022/01/15 06:57:57;;;;;;;11.48;5.47;;;;;;;6.53;54.85;102622.41;5072058;28;20131;-76
2022/01/15 07:00:25;;;;;;;11.75;6.28;;;;;;;6.52;54.44;102616.13;5070543;28;20515;-76
2022/01/15 07:02:52;;;;;;;15.43;6.95;;;;;;;6.52;54.63;102620.63;5070936;28;20082;-75
2022/01/15 07:05:20;;;;;;;12.73;6.75;;;;;;;6.51;54.64;102616.19;5084904;28;20048;-75
2022/01/15 07:07:49;;;;;;;13.10;7.65;;;;;;;6.53;54.74;102614.31;5071276;28;20040;-75
2022/01/15 07:10:16;;;;;;;16.13;7.60;;;;;;;6.49;54.60;102614.41;5086990;28;20040;-75
2022/01/15 07:12:44;;;;;;;11.98;6.25;;;;;;;6.48;54.74;102612.63;5071481;28;20067;-75
2022/01/15 07:15:13;;;;;;;13.07;6.13;;;;;;;6.47;54.86;102616.22;5065427;28;20680;-75
2022/01/15 07:17:45;;;;;;;12.95;6.95;;;;;;;6.49;54.83;102616.19;5083372;28;20494;-75
2022/01/15 07:20:13;;;;;;;14.77;6.50;;;;;;;6.47;54.83;102621.63;5066351;28;20083;-75
2022/01/15 07:22:40;;;;;;;12.27;6.60;;;;;;;6.45;54.58;102614.47;5082579;28;20090;-75
2022/01/15 07:25:08;;;;;;;12.63;6.35;;;;;;;6.44;54.62;102610.88;5084592;28;20132;-75
2022/01/15 07:27:35;;;;;;;13.55;6.60;;;;;;;6.43;54.93;102606.41;5085320;28;20052;-75
2022/01/15 07:30:07;;;;;;;14.00;7.05;;;;;;;6.46;54.91;102602.75;5080160;28;20051;-74
2022/01/15 07:32:34;;;;;;;13.45;7.32;;;;;;;6.44;54.79;102605.50;5071053;28;20225;-75
2022/01/15 07:35:00;;;;;;;12.98;7.25;;;;;;;6.44;55.02;102599.19;5086872;28;20542;-75
2022/01/15 07:37:27;;;;;;;11.00;6.25;;;;;;;6.44;55.28;102597.41;5071154;28;20087;-75
2022/01/15 07:39:53;;;;;;;15.43;7.28;;;;;;;6.41;55.08;102602.88;5071205;28;20083;-75
2022/01/15 07:42:20;;;;;;;13.77;6.95;;;;;;;6.42;55.16;102609.16;5085098;28;20128;-75
2022/01/15 07:44:47;;;;;;;16.33;7.72;;;;;;;6.43;55.18;102608.22;5074372;28;20487;-75
2022/01/15 07:47:13;;;;;;;15.85;7.32;;;;;;;6.44;55.30;102605.50;5068154;28;20531;-75
2022/01/15 07:49:41;;;;;;;14.30;6.57;;;;;;;6.44;55.30;102597.41;5088189;28;20415;-75
2022/01/15 07:52:09;;;;;;;14.57;6.72;;;;;;;6.46;55.26;102591.97;5081492;28;20097;-75
2022/01/15 07:54:35;;;;;;;11.73;6.07;;;;;;;6.48;55.08;102600.94;5069978;28;20143;-75
2022/01/15 07:57:03;;;;;;;13.77;6.95;;;;;;;6.48;55.33;102599.13;5081494;28;20044;-75
2022/01/15 07:59:29;;;;;;;13.95;6.70;;;;;;;6.50;55.46;102607.19;5088575;28;20048;-75
2022/01/15 08:01:56;;;;;;;14.00;6.47;;;;;;;6.52;55.42;102605.31;5092113;28;20117;-75
2022/01/15 08:04:23;;;;;;;11.98;6.53;;;;;;;6.55;55.41;102607.06;5079556;28;20052;-76
2022/01/15 08:06:49;;;;;;;12.75;6.72;;;;;;;6.57;55.30;102602.53;5056809;28;20040;-75
2022/01/15 08:09:16;;;;;;;12.98;6.70;;;;;;;6.58;55.52;102597.13;5093239;28;20113;-76
2022/01/15 08:11:42;;;;;;;13.45;6.80;;;;;;;6.60;55.29;102603.34;5079658;28;20072;-75
2022/01/15 08:14:09;;;;;;;13.68;6.85;;;;;;;6.61;55.30;102593.44;5087223;28;20286;-75
2022/01/15 08:16:35;;;;;;;13.52;6.38;;;;;;;6.63;55.23;102600.59;5086245;28;20127;-74
2022/01/15 08:19:02;;;;;;;12.77;6.78;;;;;;;6.63;55.09;102594.28;5069918;28;20605;-76
2022/01/15 08:21:29;;;;;;;12.05;6.20;;;;;;;6.63;54.92;102583.50;5070961;28;20130;-75
2022/01/15 08:23:55;;;;;;;11.75;6.35;;;;;;;6.63;55.04;102586.19;5070091;28;20064;-75
2022/01/15 08:26:22;;;;;;;13.45;6.60;;;;;;;6.64;55.10;102587.97;5083863;28;20044;-75
2022/01/15 08:28:48;;;;;;;14.43;6.35;;;;;;;6.66;54.83;102586.13;5088768;28;20463;-76
2022/01/15 08:31:15;;;;;;;11.85;6.05;;;;;;;6.63;55.03;102592.50;5087518;28;20044;-75
2022/01/15 08:33:42;;;;;;;10.88;6.05;;;;;;;6.63;55.19;102588.91;5085304;28;20538;-76
2022/01/15 08:36:09;;;;;;;11.35;6.00;;;;;;;6.63;55.10;102587.09;5086430;28;20151;-76
2022/01/15 08:38:36;;;;;;;11.38;5.60;;;;;;;6.63;54.89;102586.19;5088985;28;20248;-76
2022/01/15 08:41:21;;;;;;;9.57;5.20;;;;;;;6.62;54.73;102582.59;5085575;28;20130;-76
2022/01/15 08:43:48;;;;;;;11.85;6.38;;;;;;;6.61;54.83;102578.13;5092029;28;20099;-75
2022/01/15 08:46:17;;;;;;;8.80;5.22;;;;;;;6.60;54.63;102581.75;5069968;28;20113;-75
2022/01/15 08:48:45;;;;;;;11.27;6.35;;;;;;;6.58;54.61;102580.91;5090227;28;20155;-75
2022/01/15 08:51:11;;;;;;;8.40;5.07;;;;;;;6.57;54.76;102580.94;5072662;28;20052;-76
2022/01/15 08:53:38;;;;;;;10.30;5.70;;;;;;;6.56;54.85;102581.88;5091233;28;20080;-76
2022/01/15 08:56:05;;;;;;;9.57;5.18;;;;;;;6.57;54.85;102578.25;5071819;28;20052;-76
2022/01/15 08:58:33;;;;;;;11.63;6.32;;;;;;;6.56;55.04;102580.06;5091500;28;20068;-76
2022/01/15 09:01:00;;;;;;;9.55;5.70;;;;;;;6.52;55.04;102581.03;5090201;28;20078;-75
2022/01/15 09:03:27;;;;;;;10.38;5.65;;;;;;;6.48;54.79;102579.34;5093069;28;20051;-75
2022/01/15 09:05:53;;;;;;;10.85;5.57;;;;;;;6.46;54.84;102581.19;5089548;28;20142;-76
2022/01/15 09:08:24;;;;;;;11.60;6.40;;;;;;;6.46;54.73;102579.38;5085461;28;20036;-75
2022/01/15 09:10:52;;;;;;;8.73;4.72;;;;;;;6.46;54.99;102581.19;5091055;28;20051;-75
2022/01/15 09:13:20;;;;;;;10.02;5.07;;;;;;;6.45;55.16;102585.69;5074176;28;20076;-75
2022/01/15 09:15:47;;;;;;;10.02;5.38;;;;;;;6.43;55.36;102581.25;5086926;28;20391;-75
2022/01/15 09:18:15;;;;;;;8.32;4.32;;;;;;;6.45;55.19;102584.81;5070977;28;20056;-75
2022/01/15 09:20:42;;;;;;;9.40;4.85;;;;;;;6.45;55.15;102585.69;5086127;28;20075;-74
2022/01/15 09:23:09;;;;;;;9.48;5.18;;;;;;;6.47;55.42;102575.75;5086387;28;20486;-75
2022/01/15 09:25:36;;;;;;;8.48;4.72;;;;;;;6.49;55.56;102578.44;5089942;28;20091;-75
2022/01/15 09:30:48;;;;;;;8.10;4.72;;;;;;;6.50;55.33;102577.50;5085587;28;20499;-74
2022/01/15 09:33:15;;;;;;;7.93;4.35;;;;;;;6.53;55.51;102582.81;5072231;28;20090;-74
2022/01/15 09:35:43;;;;;;;8.98;4.50;;;;;;;6.54;55.32;102581.91;5084750;28;20051;-74
2022/01/15 09:38:10;;;;;;;8.73;4.22;;;;;;;6.56;55.19;102569.25;5073396;28;20093;-74
2022/01/15 09:40:39;;;;;;;8.15;4.30;;;;;;;6.57;55.55;102572.84;5071121;28;20093;-74
2022/01/15 09:43:05;;;;;;;7.60;4.03;;;;;;;6.58;55.26;102572.81;5090214;28;20105;-74
2022/01/15 09:45:35;;;;;;;7.60;4.05;;;;;;;6.60;55.26;102572.75;5058072;28;20052;-74
2022/01/15 09:48:05;;;;;;;8.85;4.25;;;;;;;6.61;55.33;102561.94;5084516;28;20044;-74
2022/01/15 09:50:34;;;;;;;8.48;4.50;;;;;;;6.63;55.51;102562.81;5086748;28;20056;-74
2022/01/15 09:53:01;;;;;;;7.10;4.00;;;;;;;6.63;55.36;102561.91;5084218;28;20182;-74
2022/01/15 09:55:27;;;;;;;9.45;4.45;;;;;;;6.64;55.44;102553.78;5087546;28;20123;-74
2022/01/15 09:57:55;;;;;;;8.20;4.25;;;;;;;6.66;55.55;102553.75;5089309;28;20056;-74
2022/01/15 10:00:24;;;;;;;7.20;4.00;;;;;;;6.68;55.28;102544.69;5089025;28;20060;-74
2022/01/15 10:02:52;;;;;;;8.52;4.72;;;;;;;6.68;55.51;102547.38;5096773;28;20133;-74
2022/01/15 10:05:22;;;;;;;9.00;4.00;;;;;;;6.70;55.58;102548.22;5089079;28;20048;-75
2022/01/15 10:08:09;;;;;;;7.35;4.25;;;;;;;6.73;55.60;102536.47;5079664;28;20475;-74
2022/01/15 10:10:38;;;;;;;9.35;4.72;;;;;;;6.71;55.40;102525.72;5082673;28;20136;-74
2022/01/15 10:13:21;;;;;;;8.38;3.85;;;;;;;6.76;55.79;102528.28;5083121;28;20105;-73
2022/01/15 10:15:49;;;;;;;6.10;3.55;;;;;;;6.73;55.65;102523.88;5085487;28;20048;-74
2022/01/15 10:18:43;;;;;;;5.85;3.47;;;;;;;6.77;55.83;102527.38;5085862;28;20041;-74
2022/01/15 10:21:23;;;;;;;6.63;3.40;;;;;;;6.80;55.79;102532.72;5071262;28;20048;-74
2022/01/15 10:23:55;;;;;;;8.02;4.30;;;;;;;6.83;55.85;102529.94;5071826;28;20567;-74
2022/01/15 10:26:27;;;;;;;8.18;4.03;;;;;;;6.84;55.56;102524.47;5081861;28;20071;-75
2022/01/15 10:28:55;;;;;;;7.90;4.38;;;;;;;6.86;55.44;102519.06;5081879;28;20110;-75
2022/01/15 10:31:25;;;;;;;7.07;3.58;;;;;;;6.88;55.64;102526.19;5085809;28;20452;-74
2022/01/15 10:33:53;;;;;;;7.03;4.00;;;;;;;6.90;55.43;102523.47;5079236;28;20063;-74
2022/01/15 10:36:23;;;;;;;7.38;3.80;;;;;;;6.91;55.47;102525.25;5088863;28;20465;-74
2022/01/15 10:38:50;;;;;;;7.90;4.05;;;;;;;6.92;55.53;102523.44;5086096;28;20044;-74
2022/01/15 10:41:35;;;;;;;6.70;3.38;;;;;;;6.93;55.69;102519.78;5088927;28;20444;-74
2022/01/15 10:44:35;;;;;;;6.32;3.60;;;;;;;6.93;55.46;102520.66;5070487;28;20043;-74
2022/01/15 10:47:07;;;;;;;6.47;3.50;;;;;;;6.93;55.63;102503.56;5084842;28;20087;-74
2022/01/15 10:49:37;;;;;;;7.03;3.40;;;;;;;6.94;55.70;102506.25;5070553;28;20467;-74
2022/01/15 10:52:07;;;;;;;7.68;3.85;;;;;;;6.96;55.74;102509.81;5089332;28;20147;-75
2022/01/15 10:54:48;;;;;;;6.72;3.80;;;;;;;7.00;55.80;102505.22;5085069;28;20131;-74
2022/01/15 10:57:17;;;;;;;6.10;3.85;;;;;;;7.01;55.96;102504.25;5084970;28;20047;-75
2022/01/15 11:00:00;;;;;;;5.82;3.20;;;;;;;7.06;55.80;102499.66;5081691;28;20079;-75
2022/01/15 11:02:28;;;;;;;6.38;3.67;;;;;;;7.07;55.67;102498.72;5098519;28;20055;-75
2022/01/15 11:04:58;;;;;;;6.78;3.70;;;;;;;7.09;55.58;102496.84;5082730;28;20525;-75
2022/01/15 11:07:25;;;;;;;7.38;3.90;;;;;;;7.12;55.36;102497.69;5089969;28;20411;-74
2022/01/15 11:09:53;;;;;;;7.95;4.07;;;;;;;7.13;55.51;102493.16;5079498;28;20048;-75
2022/01/15 11:12:26;;;;;;;6.95;3.70;;;;;;;7.16;55.63;102488.59;5089325;28;20076;-74
2022/01/15 11:14:53;;;;;;;7.18;3.65;;;;;;;7.14;55.65;102490.44;5086853;28;20109;-75
2022/01/15 11:17:20;;;;;;;7.00;4.05;;;;;;;7.14;55.60;102484.13;5100314;28;20082;-74
2022/01/15 11:19:51;;;;;;;6.55;3.88;;;;;;;7.18;55.55;102486.69;5071624;28;20077;-74
2022/01/15 11:22:23;;;;;;;6.53;3.85;;;;;;;7.17;55.60;102484.03;5069895;28;20075;-74
2022/01/15 11:24:50;;;;;;;6.85;3.53;;;;;;;7.17;55.71;102482.22;5076904;28;20075;-74
2022/01/15 11:27:18;;;;;;;7.40;4.63;;;;;;;7.19;55.73;102484.88;5085958;28;21685;-74
2022/01/15 11:29:47;;;;;;;5.97;3.55;;;;;;;7.20;55.65;102479.44;5087648;28;20060;-74
2022/01/15 11:32:15;;;;;;;5.90;3.47;;;;;;;7.21;55.27;102483.03;5088533;28;20044;-74
2022/01/15 11:34:58;;;;;;;8.48;4.10;;;;;;;7.22;55.79;102488.41;5088599;28;20051;-74
2022/01/15 11:37:25;;;;;;;6.60;3.65;;;;;;;7.18;55.78;102472.31;5089528;28;20044;-74
2022/01/15 11:39:55;;;;;;;7.40;4.03;;;;;;;7.23;55.65;102478.50;5087208;28;20055;-75
2022/01/15 11:42:35;;;;;;;7.10;4.13;;;;;;;7.26;55.57;102478.38;5085179;28;20109;-74
2022/01/15 11:45:02;;;;;;;7.53;3.97;;;;;;;7.22;55.60;102477.59;5079841;28;20067;-75
2022/01/15 11:47:29;;;;;;;7.30;4.50;;;;;;;7.24;55.67;102478.47;5083636;28;20055;-74
2022/01/15 11:49:58;;;;;;;5.50;3.20;;;;;;;7.24;55.74;102474.88;5100947;28;20200;-74
2022/01/15 11:52:26;;;;;;;7.97;4.22;;;;;;;7.24;55.75;102472.16;5088905;28;20044;-74
2022/01/15 11:54:58;;;;;;;6.63;4.25;;;;;;;7.29;56.01;102463.91;5068494;28;20083;-75
2022/01/15 11:57:34;;;;;;;6.75;4.10;;;;;;;7.29;55.65;102462.09;5088276;28;20052;-74
2022/01/15 12:00:01;;;;;;;6.60;3.83;;;;;;;7.30;55.58;102466.59;5088496;28;20060;-74
2022/01/15 12:02:29;;;;;;;7.18;4.18;;;;;;;7.31;55.77;102467.47;5084726;28;20109;-74